Time;durP1;ratioP1;P1;durP2;ratioP2;P2;SDS_P1;SDS_P2;PMS_P1;PMS_P2;Temp;Humidity;BMP_temperature;BMP_pressure;BME280_temperature;BME280_humidity;BME280_pressure;Samples;Min_cycle;Max_cycle;Signal;HPM_P1;HPM_P2
2024/03/17 00:01:51;;;;;;;6.28;2.72;;;;;;;;;;5073322;28;20021;-68
2024/03/17 00:04:18;;;;;;;4.07;1.70;;;;;;;;;;5055153;28;20066;-68
2024/03/17 00:06:44;;;;;;;3.15;2.03;;;;;;;;;;5073217;28;20510;-68
2024/03/17 00:09:10;;;;;;;4.13;2.40;;;;;;;;;;5055497;28;20062;-68
2024/03/17 00:11:36;;;;;;;5.13;1.83;;;;;;;;;;5073221;28;20063;-68
2024/03/17 00:14:03;;;;;;;6.22;2.92;;;;;;;;;;5073027;28;20056;-71
2024/03/17 00:16:29;;;;;;;7.57;2.60;;;;;;;;;;5073073;28;20105;-69
2024/03/17 00:18:55;;;;;;;4.95;2.40;;;;;;;;;;5073307;28;20063;-68
2024/03/17 00:21:21;;;;;;;8.05;2.45;;;;;;;;;;5072872;28;20047;-68
2024/03/17 00:23:50;;;;;;;7.50;2.53;;;;;;;;;;5073055;28;20032;-68
2024/03/17 00:26:16;;;;;;;2.45;2.15;;;;;;;;;;5073187;28;20025;-68
2024/03/17 00:28:46;;;;;;;4.57;2.33;;;;;;;;;;5071905;28;20032;-70
2024/03/17 00:31:14;;;;;;;3.95;2.53;;;;;;;;;;5054006;28;20083;-69
2024/03/17 00:33:40;;;;;;;3.97;2.58;;;;;;;;;;5072983;28;20555;-67
2024/03/17 00:36:06;;;;;;;6.57;2.97;;;;;;;;;;5054536;28;20029;-70
2024/03/17 00:38:32;;;;;;;4.40;2.72;;;;;;;;;;5073056;28;20059;-68
2024/03/17 00:40:59;;;;;;;9.77;2.97;;;;;;;;;;5072535;28;20031;-68
2024/03/17 00:43:25;;;;;;;5.60;2.92;;;;;;;;;;5072493;28;20548;-68
2024/03/17 00:45:54;;;;;;;6.13;2.30;;;;;;;;;;5054597;28;20510;-69
2024/03/17 00:48:20;;;;;;;3.28;1.63;;;;;;;;;;5072407;28;20047;-67
2024/03/17 00:50:47;;;;;;;8.55;2.30;;;;;;;;;;5037437;28;20020;-68
2024/03/17 00:53:14;;;;;;;7.80;2.67;;;;;;;;;;5072225;28;20048;-68
2024/03/17 00:55:40;;;;;;;4.82;2.22;;;;;;;;;;5054225;28;20055;-67
2024/03/17 00:58:06;;;;;;;4.13;2.30;;;;;;;;;;5072242;28;20375;-68
2024/03/17 01:00:35;;;;;;;4.28;2.58;;;;;;;;;;5071870;28;20379;-67
2024/03/17 01:03:01;;;;;;;5.60;2.67;;;;;;;;;;5071046;28;20013;-68
2024/03/17 01:05:27;;;;;;;4.90;2.20;;;;;;;;;;5071474;28;20471;-68
2024/03/17 01:07:53;;;;;;;3.60;2.67;;;;;;;;;;5072106;28;20022;-68
2024/03/17 01:10:19;;;;;;;3.85;2.45;;;;;;;;;;5054386;28;20035;-67
2024/03/17 01:12:45;;;;;;;4.88;2.72;;;;;;;;;;5072012;28;20071;-67
2024/03/17 01:15:11;;;;;;;4.60;2.90;;;;;;;;;;5071816;28;20359;-67
2024/03/17 01:17:37;;;;;;;3.88;3.13;;;;;;;;;;5071971;28;20059;-69
2024/03/17 01:20:04;;;;;;;5.93;2.78;;;;;;;;;;5053929;28;20021;-67
2024/03/17 01:22:30;;;;;;;5.47;2.90;;;;;;;;;;5053453;28;20017;-67
2024/03/17 01:24:56;;;;;;;6.68;2.55;;;;;;;;;;5071741;28;20459;-67
2024/03/17 01:27:22;;;;;;;5.82;2.67;;;;;;;;;;5071770;28;20025;-67
2024/03/17 01:29:48;;;;;;;5.15;3.05;;;;;;;;;;5053307;28;20033;-67
2024/03/17 01:32:14;;;;;;;4.65;3.00;;;;;;;;;;5053235;28;20017;-67
2024/03/17 01:34:40;;;;;;;4.68;3.42;;;;;;;;;;5071520;28;20032;-66
2024/03/17 01:37:06;;;;;;;8.05;2.88;;;;;;;;;;5071887;28;20021;-65
2024/03/17 01:39:33;;;;;;;4.07;2.70;;;;;;;;;;5071656;28;20041;-66
2024/03/17 01:41:59;;;;;;;6.45;3.63;;;;;;;;;;5070572;28;20051;-66
2024/03/17 01:44:27;;;;;;;6.10;3.05;;;;;;;;;;5053542;28;20029;-66
2024/03/17 01:46:54;;;;;;;11.50;4.15;;;;;;;;;;5071253;28;20035;-66
2024/03/17 01:49:21;;;;;;;6.05;3.80;;;;;;;;;;5071429;28;20108;-66
2024/03/17 01:51:47;;;;;;;4.10;2.97;;;;;;;;;;5071408;28;20028;-66
2024/03/17 01:54:14;;;;;;;8.85;3.45;;;;;;;;;;5071247;28;20047;-66
2024/03/17 01:56:40;;;;;;;6.55;3.35;;;;;;;;;;5071365;28;20032;-66
2024/03/17 01:59:06;;;;;;;6.20;3.38;;;;;;;;;;5071288;28;20082;-66
2024/03/17 02:01:33;;;;;;;7.35;3.78;;;;;;;;;;5070790;28;20475;-67
2024/03/17 02:03:59;;;;;;;7.40;4.05;;;;;;;;;;5070809;28;20047;-66
2024/03/17 02:06:25;;;;;;;5.93;3.83;;;;;;;;;;5071376;28;20032;-66
2024/03/17 02:08:52;;;;;;;4.35;3.00;;;;;;;;;;5071554;28;20036;-66
2024/03/17 02:11:26;;;;;;;5.45;3.30;;;;;;;;;;5070900;28;20055;-66
2024/03/17 02:13:52;;;;;;;10.60;3.50;;;;;;;;;;5070914;28;20461;-66
2024/03/17 02:16:19;;;;;;;3.00;2.30;;;;;;;;;;5053604;28;20033;-67
2024/03/17 02:18:45;;;;;;;3.72;2.72;;;;;;;;;;5071744;28;20115;-66
2024/03/17 02:21:12;;;;;;;6.22;3.00;;;;;;;;;;5053230;28;20040;-66
2024/03/17 02:23:38;;;;;;;5.63;2.58;;;;;;;;;;5071383;28;20035;-66
2024/03/17 02:26:04;;;;;;;4.65;3.00;;;;;;;;;;5071383;28;20085;-65
2024/03/17 02:28:30;;;;;;;5.93;2.72;;;;;;;;;;5070349;28;20180;-65
2024/03/17 02:30:56;;;;;;;6.18;2.72;;;;;;;;;;5052767;28;20518;-67
2024/03/17 02:33:23;;;;;;;5.05;3.15;;;;;;;;;;5072490;28;20471;-65
2024/03/17 02:35:49;;;;;;;4.85;2.50;;;;;;;;;;5071429;28;20024;-65
2024/03/17 02:39:33;;;;;;;4.30;2.72;;;;;;;;;;5070909;28;20028;-66
2024/03/17 02:41:07;;;;;;;5.40;3.33;;;;;;;;;;5070246;28;20086;-65
2024/03/17 02:43:33;;;;;;;3.70;2.97;;;;;;;;;;5070713;28;20158;-65
2024/03/17 02:45:59;;;;;;;3.70;2.88;;;;;;;;;;5070619;28;20450;-66
2024/03/17 02:48:25;;;;;;;5.57;2.90;;;;;;;;;;5070799;28;20375;-67
2024/03/17 02:50:51;;;;;;;5.70;2.90;;;;;;;;;;5070647;28;20047;-66
2024/03/17 02:53:17;;;;;;;5.55;3.05;;;;;;;;;;5055014;28;20371;-66
2024/03/17 02:55:43;;;;;;;7.18;3.28;;;;;;;;;;5074642;28;20025;-67
2024/03/17 02:58:09;;;;;;;7.93;3.42;;;;;;;;;;5074954;28;20024;-66
2024/03/17 03:00:35;;;;;;;20.90;4.03;;;;;;;;;;5074547;28;20020;-66
2024/03/17 03:03:01;;;;;;;8.90;4.00;;;;;;;;;;5074288;28;20028;-67
2024/03/17 03:05:27;;;;;;;12.63;4.05;;;;;;;;;;5074861;28;20443;-68
2024/03/17 03:07:53;;;;;;;10.68;3.50;;;;;;;;;;5074355;28;20029;-67
2024/03/17 03:10:19;;;;;;;7.32;4.05;;;;;;;;;;5074049;28;20078;-66
2024/03/17 03:12:45;;;;;;;5.03;4.22;;;;;;;;;;5072255;28;20474;-66
2024/03/17 03:15:11;;;;;;;7.40;4.47;;;;;;;;;;5055533;28;20090;-66
2024/03/17 03:17:38;;;;;;;5.20;2.97;;;;;;;;;;5074102;28;20032;-66
2024/03/17 03:20:05;;;;;;;8.02;4.35;;;;;;;;;;5056594;28;20439;-68
2024/03/17 03:22:31;;;;;;;5.60;3.60;;;;;;;;;;5074661;28;20451;-67
2024/03/17 03:24:57;;;;;;;7.38;4.35;;;;;;;;;;5074335;28;20080;-67
2024/03/17 03:27:24;;;;;;;5.45;4.13;;;;;;;;;;5074384;28;20023;-65
2024/03/17 03:29:50;;;;;;;8.98;4.80;;;;;;;;;;5074467;28;20029;-65
2024/03/17 03:32:17;;;;;;;7.85;5.43;;;;;;;;;;5073778;28;20092;-65
2024/03/17 03:34:43;;;;;;;9.75;5.38;;;;;;;;;;5073750;28;20496;-67
2024/03/17 03:37:10;;;;;;;6.68;4.93;;;;;;;;;;5073590;28;20177;-65
2024/03/17 03:39:36;;;;;;;7.15;5.40;;;;;;;;;;5073677;28;20444;-65
2024/03/17 03:42:02;;;;;;;7.55;4.50;;;;;;;;;;5055835;28;20111;-66
2024/03/17 03:44:28;;;;;;;7.55;4.80;;;;;;;;;;5074045;28;20024;-67
2024/03/17 03:46:58;;;;;;;11.02;5.35;;;;;;;;;;5074217;28;20020;-66
2024/03/17 03:49:25;;;;;;;9.27;4.95;;;;;;;;;;5073836;28;20063;-66
2024/03/17 03:51:51;;;;;;;4.90;4.38;;;;;;;;;;5073336;28;20028;-66
2024/03/17 03:54:17;;;;;;;7.45;4.65;;;;;;;;;;5073973;28;20033;-66
2024/03/17 03:56:44;;;;;;;7.05;4.93;;;;;;;;;;5074578;28;20356;-67
2024/03/17 03:59:10;;;;;;;8.70;4.90;;;;;;;;;;5074151;28;20103;-67
2024/03/17 04:01:37;;;;;;;8.07;4.75;;;;;;;;;;5073360;28;20036;-66
2024/03/17 04:04:03;;;;;;;10.05;5.25;;;;;;;;;;5073513;28;20048;-66
2024/03/17 04:06:29;;;;;;;7.57;5.03;;;;;;;;;;5054942;28;20039;-66
2024/03/17 04:08:55;;;;;;;7.57;5.07;;;;;;;;;;5073708;28;20052;-66
2024/03/17 04:11:21;;;;;;;8.20;5.00;;;;;;;;;;5073067;28;20464;-66
2024/03/17 04:13:48;;;;;;;7.93;4.90;;;;;;;;;;5073188;28;20082;-66
2024/03/17 04:16:14;;;;;;;7.40;4.75;;;;;;;;;;5073526;28;20390;-66
2024/03/17 04:18:41;;;;;;;6.82;4.70;;;;;;;;;;5055236;28;20032;-66
2024/03/17 04:21:07;;;;;;;6.32;5.10;;;;;;;;;;5072942;28;20473;-66
2024/03/17 04:23:33;;;;;;;8.10;5.15;;;;;;;;;;5072614;28;20041;-67
2024/03/17 04:26:00;;;;;;;5.10;4.60;;;;;;;;;;5072908;28;20024;-68
2024/03/17 04:28:27;;;;;;;9.23;5.10;;;;;;;;;;5073006;28;20030;-68
2024/03/17 04:30:53;;;;;;;11.93;5.93;;;;;;;;;;5072588;28;20020;-68
2024/03/17 04:33:19;;;;;;;8.35;5.10;;;;;;;;;;5072983;28;20075;-68
2024/03/17 04:35:45;;;;;;;7.18;4.78;;;;;;;;;;5073455;28;20024;-68
2024/03/17 04:38:11;;;;;;;6.03;4.75;;;;;;;;;;5073338;28;20466;-67
2024/03/17 04:40:41;;;;;;;6.93;5.22;;;;;;;;;;5055146;28;20367;-66
2024/03/17 04:43:07;;;;;;;5.60;4.50;;;;;;;;;;5073003;28;20505;-66
2024/03/17 04:45:33;;;;;;;8.25;5.47;;;;;;;;;;5072942;28;20425;-66
2024/03/17 04:47:59;;;;;;;6.30;5.25;;;;;;;;;;5072467;28;20121;-66
2024/03/17 04:50:26;;;;;;;7.80;4.97;;;;;;;;;;5072212;28;20025;-66
2024/03/17 04:52:52;;;;;;;8.48;5.38;;;;;;;;;;5072589;28;20028;-67
2024/03/17 04:55:18;;;;;;;9.60;5.05;;;;;;;;;;5072573;28;20033;-66
2024/03/17 04:57:45;;;;;;;6.50;5.15;;;;;;;;;;5072582;28;20020;-66
2024/03/17 05:00:17;;;;;;;9.02;4.72;;;;;;;;;;5054373;28;20060;-66
2024/03/17 05:02:43;;;;;;;6.95;5.43;;;;;;;;;;5072347;28;20044;-66
2024/03/17 05:05:10;;;;;;;8.55;5.47;;;;;;;;;;5054495;28;20516;-66
2024/03/17 05:07:36;;;;;;;8.13;6.07;;;;;;;;;;5072583;28;20021;-65
2024/03/17 05:10:03;;;;;;;8.25;5.22;;;;;;;;;;5071151;28;20046;-67
2024/03/17 05:12:29;;;;;;;10.15;5.03;;;;;;;;;;5053817;28;20040;-66
2024/03/17 05:14:55;;;;;;;7.20;4.95;;;;;;;;;;5071631;28;20025;-65
2024/03/17 05:17:21;;;;;;;7.18;5.82;;;;;;;;;;5071991;28;20020;-66
2024/03/17 05:19:47;;;;;;;10.07;5.70;;;;;;;;;;5072238;28;20020;-67
2024/03/17 05:22:13;;;;;;;9.15;5.47;;;;;;;;;;5070154;28;20047;-66
2024/03/17 05:24:39;;;;;;;7.90;5.85;;;;;;;;;;5053210;28;20064;-65
2024/03/17 05:27:06;;;;;;;6.40;5.13;;;;;;;;;;5053620;28;20040;-65
2024/03/17 05:29:33;;;;;;;7.35;5.50;;;;;;;;;;5071361;28;20029;-66
2024/03/17 05:31:59;;;;;;;9.48;5.60;;;;;;;;;;5051906;28;20490;-65
2024/03/17 05:34:25;;;;;;;7.60;5.95;;;;;;;;;;5071095;28;20119;-66
2024/03/17 05:36:52;;;;;;;10.05;6.07;;;;;;;;;;5071386;28;20020;-66
2024/03/17 05:39:18;;;;;;;11.45;5.55;;;;;;;;;;5071404;28;20032;-68
2024/03/17 05:41:44;;;;;;;6.80;5.40;;;;;;;;;;5071295;28;20028;-66
2024/03/17 05:44:10;;;;;;;7.53;5.13;;;;;;;;;;5071238;28;20032;-67
2024/03/17 05:46:36;;;;;;;8.88;4.80;;;;;;;;;;5053464;28;20077;-66
2024/03/17 05:49:03;;;;;;;7.25;4.78;;;;;;;;;;5071283;28;20063;-67
2024/03/17 05:51:29;;;;;;;6.50;5.20;;;;;;;;;;5053219;28;20081;-67
2024/03/17 05:53:58;;;;;;;8.25;4.50;;;;;;;;;;5071244;28;20063;-66
2024/03/17 05:56:24;;;;;;;10.60;4.88;;;;;;;;;;5071367;28;20089;-65
2024/03/17 05:58:50;;;;;;;8.77;4.78;;;;;;;;;;5071247;28;20373;-65
2024/03/17 06:01:16;;;;;;;6.05;4.63;;;;;;;;;;5071005;28;20036;-68
2024/03/17 06:03:42;;;;;;;7.32;4.60;;;;;;;;;;5071508;28;20028;-66
2024/03/17 06:06:12;;;;;;;7.80;4.82;;;;;;;;;;5071487;28;20057;-66
2024/03/17 06:08:38;;;;;;;7.60;4.97;;;;;;;;;;5071231;28;20017;-66
2024/03/17 06:11:04;;;;;;;8.88;4.65;;;;;;;;;;5053505;28;20112;-66
2024/03/17 06:13:31;;;;;;;10.68;5.00;;;;;;;;;;5071685;28;20020;-66
2024/03/17 06:16:00;;;;;;;6.40;4.75;;;;;;;;;;5072498;28;20020;-66
2024/03/17 06:18:27;;;;;;;9.05;5.00;;;;;;;;;;5073151;28;20013;-66
2024/03/17 06:20:53;;;;;;;9.88;4.75;;;;;;;;;;5054484;28;20020;-66
2024/03/17 06:23:19;;;;;;;6.50;4.72;;;;;;;;;;5072428;28;20036;-65
2024/03/17 06:25:47;;;;;;;9.35;4.72;;;;;;;;;;5072621;28;20730;-65
2024/03/17 06:28:15;;;;;;;9.50;4.63;;;;;;;;;;5071912;28;20020;-66
2024/03/17 06:30:48;;;;;;;12.30;5.57;;;;;;;;;;5070981;28;20024;-66
2024/03/17 06:33:14;;;;;;;6.82;4.78;;;;;;;;;;5053388;28;20063;-66
2024/03/17 06:35:40;;;;;;;6.47;4.40;;;;;;;;;;5070293;28;20024;-66
2024/03/17 06:38:09;;;;;;;8.38;5.18;;;;;;;;;;5072218;28;20024;-65
2024/03/17 06:40:35;;;;;;;6.45;5.22;;;;;;;;;;5054643;28;20017;-66
2024/03/17 06:43:01;;;;;;;6.95;4.40;;;;;;;;;;5053511;28;20032;-68
2024/03/17 06:45:28;;;;;;;13.10;4.50;;;;;;;;;;5054104;28;20109;-65
2024/03/17 06:47:55;;;;;;;9.55;4.78;;;;;;;;;;5071452;28;20421;-66
2024/03/17 06:50:21;;;;;;;8.68;4.93;;;;;;;;;;5070486;28;20060;-67
2024/03/17 06:52:47;;;;;;;5.90;4.18;;;;;;;;;;5093000;22;20036;-68
2024/03/17 06:55:13;;;;;;;6.25;4.80;;;;;;;;;;5072039;28;20032;-67
2024/03/17 06:57:43;;;;;;;9.43;4.20;;;;;;;;;;5055129;28;20108;-67
2024/03/17 07:00:13;;;;;;;7.60;3.92;;;;;;;;;;5075885;28;20017;-69
2024/03/17 07:02:40;;;;;;;5.65;3.65;;;;;;;;;;5078868;28;20027;-69
2024/03/17 07:05:07;;;;;;;7.40;3.83;;;;;;;;;;5081569;28;20031;-69
2024/03/17 07:07:33;;;;;;;5.03;3.70;;;;;;;;;;5060374;28;20449;-72
2024/03/17 07:09:59;;;;;;;10.48;4.65;;;;;;;;;;5064467;28;20095;-70
2024/03/17 07:12:25;;;;;;;4.75;3.70;;;;;;;;;;5076084;28;20048;-69
2024/03/17 07:14:51;;;;;;;5.20;3.20;;;;;;;;;;5055465;28;20123;-69
2024/03/17 07:17:18;;;;;;;5.30;4.13;;;;;;;;;;5052183;28;20043;-69
2024/03/17 07:19:44;;;;;;;7.05;3.92;;;;;;;;;;5071289;28;20099;-69
2024/03/17 07:22:10;;;;;;;5.38;4.10;;;;;;;;;;5070617;28;20024;-69
2024/03/17 07:24:36;;;;;;;5.07;2.95;;;;;;;;;;5070790;28;20145;-68
2024/03/17 07:27:03;;;;;;;4.28;3.20;;;;;;;;;;5071004;28;20024;-68
2024/03/17 07:29:29;;;;;;;4.95;3.22;;;;;;;;;;5072156;28;20052;-68
2024/03/17 07:31:55;;;;;;;4.10;3.08;;;;;;;;;;5071584;28;20100;-68
2024/03/17 07:34:21;;;;;;;5.85;3.70;;;;;;;;;;5071977;28;20528;-67
2024/03/17 07:36:47;;;;;;;5.15;3.08;;;;;;;;;;5070640;28;20021;-68
2024/03/17 07:39:13;;;;;;;5.65;3.25;;;;;;;;;;5072434;28;20418;-70
2024/03/17 07:41:39;;;;;;;6.20;2.95;;;;;;;;;;5074314;28;20028;-67
2024/03/17 07:44:05;;;;;;;4.45;3.35;;;;;;;;;;5074641;28;20024;-69
2024/03/17 07:46:31;;;;;;;5.10;2.60;;;;;;;;;;5074489;28;20033;-68
2024/03/17 07:48:57;;;;;;;4.65;3.28;;;;;;;;;;5074911;28;20036;-69
2024/03/17 07:51:23;;;;;;;4.57;2.60;;;;;;;;;;5073739;28;20063;-69
2024/03/17 07:53:49;;;;;;;4.40;3.28;;;;;;;;;;5072419;28;20071;-68
2024/03/17 07:56:16;;;;;;;12.15;3.30;;;;;;;;;;5073773;28;20420;-68
2024/03/17 07:58:43;;;;;;;4.47;2.97;;;;;;;;;;5073444;28;20020;-67
2024/03/17 08:01:11;;;;;;;3.88;2.83;;;;;;;;;;5073337;28;20382;-70
2024/03/17 08:03:38;;;;;;;4.10;3.05;;;;;;;;;;5073735;28;20025;-68
2024/03/17 08:06:04;;;;;;;7.13;2.90;;;;;;;;;;5072352;28;20066;-69
2024/03/17 08:08:31;;;;;;;8.50;2.55;;;;;;;;;;5073127;28;20031;-66
2024/03/17 08:10:57;;;;;;;5.13;2.63;;;;;;;;;;5071477;28;20031;-69
2024/03/17 08:13:23;;;;;;;6.53;2.25;;;;;;;;;;5073160;28;20032;-67
2024/03/17 08:15:59;;;;;;;7.53;2.45;;;;;;;;;;5073200;28;20020;-67
2024/03/17 08:18:26;;;;;;;3.53;2.53;;;;;;;;;;5072329;28;20036;-69
2024/03/17 08:20:53;;;;;;;5.28;2.40;;;;;;;;;;5072086;28;20225;-67
2024/03/17 08:23:20;;;;;;;4.55;3.00;;;;;;;;;;5072310;28;20024;-66
2024/03/17 08:25:53;;;;;;;4.78;2.30;;;;;;;;;;5071943;28;20020;-68
2024/03/17 08:28:19;;;;;;;5.05;2.45;;;;;;;;;;5072511;28;20608;-67
2024/03/17 08:30:51;;;;;;;6.10;2.78;;;;;;;;;;5072359;28;20067;-66
2024/03/17 08:33:17;;;;;;;3.63;2.55;;;;;;;;;;5054255;28;20678;-66
2024/03/17 08:35:43;;;;;;;2.65;2.08;;;;;;;;;;5072881;28;20033;-68
2024/03/17 08:38:09;;;;;;;5.38;2.80;;;;;;;;;;5072844;28;20027;-65
2024/03/17 08:40:37;;;;;;;3.13;2.30;;;;;;;;;;5071433;28;20470;-66
2024/03/17 08:43:03;;;;;;;3.42;2.58;;;;;;;;;;5072045;28;20024;-67
2024/03/17 08:45:29;;;;;;;5.28;2.95;;;;;;;;;;5070130;28;20024;-69
2024/03/17 08:47:55;;;;;;;6.18;2.63;;;;;;;;;;5072083;28;20158;-68
2024/03/17 08:50:21;;;;;;;2.90;2.63;;;;;;;;;;5070782;28;20104;-68
2024/03/17 08:52:47;;;;;;;4.60;2.53;;;;;;;;;;5071297;28;20048;-69
2024/03/17 08:55:14;;;;;;;4.32;3.10;;;;;;;;;;5072146;28;20047;-69
2024/03/17 08:57:40;;;;;;;3.22;2.33;;;;;;;;;;5072117;28;20062;-68
2024/03/17 09:00:08;;;;;;;3.33;2.28;;;;;;;;;;5053633;28;20060;-67
2024/03/17 09:02:34;;;;;;;3.58;2.20;;;;;;;;;;5071290;28;20031;-66
2024/03/17 09:05:00;;;;;;;4.38;3.40;;;;;;;;;;5068603;28;20309;-68
2024/03/17 09:07:26;;;;;;;3.53;2.50;;;;;;;;;;5071361;28;20052;-68
2024/03/17 09:09:52;;;;;;;4.70;2.30;;;;;;;;;;5071955;28;20458;-67
2024/03/17 09:12:18;;;;;;;4.50;2.53;;;;;;;;;;5072190;28;20060;-67
2024/03/17 09:14:47;;;;;;;3.80;2.65;;;;;;;;;;5072352;28;20032;-66
2024/03/17 09:17:13;;;;;;;3.78;2.42;;;;;;;;;;5071433;28;20067;-67
2024/03/17 09:19:40;;;;;;;3.22;2.28;;;;;;;;;;5052830;28;20027;-67
2024/03/17 09:22:06;;;;;;;4.10;2.40;;;;;;;;;;5071839;28;20031;-68
2024/03/17 09:24:32;;;;;;;2.90;2.25;;;;;;;;;;5072386;28;20058;-68
2024/03/17 09:26:58;;;;;;;3.10;2.25;;;;;;;;;;5076759;28;20478;-68
2024/03/17 09:29:24;;;;;;;5.70;2.85;;;;;;;;;;5078145;28;20032;-67
2024/03/17 09:31:51;;;;;;;3.60;2.20;;;;;;;;;;5068638;28;20356;-67
2024/03/17 09:34:17;;;;;;;4.78;2.30;;;;;;;;;;5070521;28;20024;-69
2024/03/17 09:36:44;;;;;;;2.58;1.90;;;;;;;;;;5073319;28;20032;-67
2024/03/17 09:39:11;;;;;;;40.97;10.60;;;;;;;;;;5071681;28;20031;-67
2024/03/17 09:41:39;;;;;;;5.35;2.55;;;;;;;;;;5072166;28;20016;-67
2024/03/17 09:44:06;;;;;;;4.65;2.42;;;;;;;;;;5069815;28;20470;-66
2024/03/17 09:46:34;;;;;;;6.43;3.03;;;;;;;;;;5075454;28;20064;-69
2024/03/17 09:49:01;;;;;;;8.15;3.40;;;;;;;;;;5070774;28;20131;-68
2024/03/17 09:51:27;;;;;;;10.35;4.00;;;;;;;;;;5075616;28;20127;-71
2024/03/17 09:53:53;;;;;;;8.02;3.20;;;;;;;;;;5075745;28;20107;-71
2024/03/17 09:56:20;;;;;;;5.07;2.65;;;;;;;;;;5071254;28;20028;-72
2024/03/17 09:58:47;;;;;;;3.45;2.17;;;;;;;;;;5052262;28;20419;-71
2024/03/17 10:01:13;;;;;;;7.93;3.03;;;;;;;;;;5069843;28;20039;-72
2024/03/17 10:03:45;;;;;;;4.25;2.90;;;;;;;;;;5075088;28;20483;-79
2024/03/17 10:06:15;;;;;;;5.13;2.53;;;;;;;;;;5072307;28;20041;-69
2024/03/17 10:08:43;;;;;;;2.92;2.28;;;;;;;;;;5072081;28;20124;-68
2024/03/17 10:11:11;;;;;;;3.42;2.50;;;;;;;;;;5071489;28;20361;-68
2024/03/17 10:13:37;;;;;;;4.50;1.92;;;;;;;;;;5072795;28;20045;-68
2024/03/17 10:16:03;;;;;;;3.78;2.35;;;;;;;;;;5070484;28;20406;-68
2024/03/17 10:18:29;;;;;;;6.38;2.17;;;;;;;;;;5073273;28;20036;-68
2024/03/17 10:20:56;;;;;;;3.10;1.90;;;;;;;;;;5070704;28;20103;-69
2024/03/17 10:23:23;;;;;;;3.17;2.28;;;;;;;;;;5072642;28;20032;-68
2024/03/17 10:25:49;;;;;;;3.50;1.73;;;;;;;;;;5072887;28;20054;-67
2024/03/17 10:28:16;;;;;;;4.93;2.47;;;;;;;;;;5070995;28;20043;-66
2024/03/17 10:30:42;;;;;;;2.50;1.85;;;;;;;;;;5071391;28;20024;-66
2024/03/17 10:33:22;;;;;;;4.25;2.30;;;;;;;;;;5071974;28;20105;-67
2024/03/17 10:35:48;;;;;;;3.50;2.20;;;;;;;;;;5074803;28;20195;-67
2024/03/17 10:38:14;;;;;;;2.63;2.42;;;;;;;;;;5073964;28;20025;-68
2024/03/17 10:40:42;;;;;;;6.07;2.15;;;;;;;;;;5071185;28;20032;-68
2024/03/17 10:43:08;;;;;;;4.00;2.10;;;;;;;;;;5076431;28;20020;-68
2024/03/17 10:45:38;;;;;;;2.55;1.85;;;;;;;;;;5070841;28;20493;-69
2024/03/17 10:48:11;;;;;;;3.20;2.17;;;;;;;;;;5074341;28;20466;-67
2024/03/17 10:50:38;;;;;;;5.68;2.83;;;;;;;;;;5072357;28;20528;-69
2024/03/17 10:53:08;;;;;;;4.93;1.95;;;;;;;;;;5072602;28;20391;-68
2024/03/17 10:55:44;;;;;;;4.10;2.25;;;;;;;;;;5075443;28;20023;-69
2024/03/17 10:58:22;;;;;;;2.17;1.65;;;;;;;;;;5074169;28;20048;-67
2024/03/17 11:00:48;;;;;;;1.95;1.58;;;;;;;;;;5071676;28;20016;-67
2024/03/17 11:03:15;;;;;;;2.20;2.00;;;;;;;;;;5071573;28;20035;-67
2024/03/17 11:05:41;;;;;;;3.17;1.75;;;;;;;;;;5069059;28;20052;-67
2024/03/17 11:08:14;;;;;;;2.60;2.33;;;;;;;;;;5072057;28;20032;-69
2024/03/17 11:10:49;;;;;;;2.83;1.63;;;;;;;;;;5071535;28;20029;-68
2024/03/17 11:13:29;;;;;;;2.80;2.10;;;;;;;;;;5073192;28;20028;-67
2024/03/17 11:16:04;;;;;;;6.10;1.90;;;;;;;;;;5077241;28;20071;-69
2024/03/17 11:18:39;;;;;;;2.72;2.00;;;;;;;;;;5075691;28;20107;-68
2024/03/17 11:21:20;;;;;;;2.67;1.50;;;;;;;;;;5074194;28;20031;-67
2024/03/17 11:23:55;;;;;;;8.43;3.78;;;;;;;;;;5075603;28;20044;-68
2024/03/17 11:26:27;;;;;;;5.18;2.10;;;;;;;;;;5072886;28;20564;-67
2024/03/17 11:28:53;;;;;;;6.40;2.50;;;;;;;;;;5073527;28;20040;-67
2024/03/17 11:31:40;;;;;;;2.30;2.10;;;;;;;;;;5073583;28;20021;-68
2024/03/17 11:34:07;;;;;;;4.57;2.00;;;;;;;;;;5073290;28;20194;-66
2024/03/17 11:36:39;;;;;;;4.93;2.22;;;;;;;;;;5073701;28;20025;-70
2024/03/17 11:39:06;;;;;;;6.03;2.22;;;;;;;;;;5073749;28;20478;-68
2024/03/17 11:41:35;;;;;;;5.22;2.88;;;;;;;;;;5073101;28;20032;-69
2024/03/17 11:44:14;;;;;;;7.65;2.45;;;;;;;;;;5073717;28;20032;-65
2024/03/17 11:46:40;;;;;;;4.18;2.50;;;;;;;;;;5074275;28;20087;-68
2024/03/17 11:49:06;;;;;;;5.30;2.30;;;;;;;;;;5074083;28;20024;-67
2024/03/17 11:51:34;;;;;;;3.38;1.90;;;;;;;;;;5055412;28;20482;-66
2024/03/17 11:54:01;;;;;;;3.90;2.85;;;;;;;;;;5073693;28;20104;-68
2024/03/17 11:56:29;;;;;;;6.75;2.65;;;;;;;;;;5073670;28;20180;-69
2024/03/17 11:59:10;;;;;;;4.78;2.55;;;;;;;;;;5073512;28;20016;-68
2024/03/17 12:01:37;;;;;;;4.67;1.87;;;;;;;;;;5073232;28;20024;-68
2024/03/17 12:04:05;;;;;;;4.07;1.90;;;;;;;;;;5073128;28;20287;-68
2024/03/17 12:06:34;;;;;;;3.85;2.15;;;;;;;;;;5073382;28;20103;-67
2024/03/17 12:09:30;;;;;;;2.20;1.33;;;;;;;;;;5073653;28;20033;-67
2024/03/17 12:12:03;;;;;;;4.70;2.50;;;;;;;;;;5042557;28;20403;-68
2024/03/17 12:14:29;;;;;;;4.22;2.25;;;;;;;;;;5073056;28;20024;-68
2024/03/17 12:16:59;;;;;;;4.45;2.30;;;;;;;;;;5073249;28;20020;-67
2024/03/17 12:19:27;;;;;;;3.95;2.22;;;;;;;;;;5054906;28;20035;-67
2024/03/17 12:21:54;;;;;;;3.50;2.20;;;;;;;;;;5073105;28;20013;-70
2024/03/17 12:24:27;;;;;;;4.18;2.65;;;;;;;;;;5072996;28;20419;-70
2024/03/17 12:26:58;;;;;;;5.70;3.17;;;;;;;;;;5054372;28;20028;-67
2024/03/17 12:29:46;;;;;;;4.70;2.47;;;;;;;;;;5054993;28;20025;-68
2024/03/17 12:32:31;;;;;;;4.47;2.30;;;;;;;;;;5072781;28;20103;-68
2024/03/17 12:34:57;;;;;;;5.18;2.72;;;;;;;;;;5073348;28;20107;-67
2024/03/17 12:37:33;;;;;;;4.20;2.13;;;;;;;;;;5072716;28;20021;-67
2024/03/17 12:39:59;;;;;;;3.38;2.00;;;;;;;;;;5080285;28;20025;-67
2024/03/17 12:42:28;;;;;;;4.70;2.50;;;;;;;;;;5081550;28;20438;-67
2024/03/17 12:44:54;;;;;;;2.83;2.20;;;;;;;;;;5084619;28;20044;-66
2024/03/17 12:47:24;;;;;;;4.32;2.60;;;;;;;;;;5088748;28;20031;-66
2024/03/17 12:49:55;;;;;;;8.70;3.35;;;;;;;;;;5058634;28;20037;-72
2024/03/17 12:52:31;;;;;;;5.00;2.40;;;;;;;;;;5059881;28;20467;-72
2024/03/17 13:00:31;;;;;;;3.03;2.33;;;;;;;;;;5086249;28;20383;-71
2024/03/17 13:00:31;;;;;;;3.35;2.72;;;;;;;;;;5078102;28;20516;-74
2024/03/17 13:02:57;;;;;;;3.90;2.33;;;;;;;;;;5072713;28;20013;-72
2024/03/17 13:05:23;;;;;;;3.38;2.42;;;;;;;;;;5072893;28;20167;-72
2024/03/17 13:07:50;;;;;;;7.30;3.00;;;;;;;;;;5073168;28;20060;-72
2024/03/17 13:10:17;;;;;;;3.75;2.80;;;;;;;;;;5073001;28;20040;-73
2024/03/17 13:12:43;;;;;;;9.30;2.50;;;;;;;;;;5072885;28;20070;-75
2024/03/17 13:15:16;;;;;;;3.78;2.80;;;;;;;;;;5075979;28;20109;-72
2024/03/17 13:17:46;;;;;;;6.40;3.22;;;;;;;;;;5058948;28;20032;-73
2024/03/17 13:20:18;;;;;;;8.85;3.53;;;;;;;;;;5055703;28;20052;-74
2024/03/17 13:22:44;;;;;;;8.63;3.15;;;;;;;;;;5071724;28;20035;-78
2024/03/17 13:25:37;;;;;;;5.72;3.17;;;;;;;;;;5062734;28;20556;-72
2024/03/17 13:28:04;;;;;;;4.30;2.60;;;;;;;;;;5067944;28;20105;-70
2024/03/17 13:30:30;;;;;;;5.95;2.72;;;;;;;;;;5071984;28;20077;-69
2024/03/17 13:33:00;;;;;;;4.82;2.90;;;;;;;;;;5071196;28;20029;-71
2024/03/17 13:35:30;;;;;;;7.05;3.00;;;;;;;;;;5071880;28;20032;-71
2024/03/17 13:37:59;;;;;;;4.40;2.70;;;;;;;;;;5071559;28;20027;-70
2024/03/17 13:40:26;;;;;;;4.90;2.80;;;;;;;;;;5070510;28;20533;-69
2024/03/17 13:42:53;;;;;;;5.25;3.20;;;;;;;;;;5071092;28;20056;-71
2024/03/17 13:45:20;;;;;;;5.03;2.80;;;;;;;;;;5070283;28;20029;-70
2024/03/17 13:47:52;;;;;;;3.88;2.88;;;;;;;;;;5053093;28;20099;-69
2024/03/17 13:50:18;;;;;;;8.50;3.90;;;;;;;;;;5072208;28;20467;-70
2024/03/17 13:52:44;;;;;;;5.78;3.17;;;;;;;;;;5052660;28;20040;-69
2024/03/17 13:55:17;;;;;;;8.82;3.15;;;;;;;;;;5071210;28;20112;-70
2024/03/17 13:57:44;;;;;;;6.15;3.30;;;;;;;;;;5072110;28;20040;-68
2024/03/17 14:00:15;;;;;;;6.10;3.30;;;;;;;;;;5071583;28;20019;-70
2024/03/17 14:02:41;;;;;;;4.55;2.90;;;;;;;;;;5071985;28;20052;-69
2024/03/17 14:05:08;;;;;;;6.05;3.42;;;;;;;;;;5072006;28;20024;-70
2024/03/17 14:07:34;;;;;;;3.85;3.42;;;;;;;;;;5071846;28;20028;-69
2024/03/17 14:10:00;;;;;;;4.47;2.83;;;;;;;;;;5071873;28;20391;-68
2024/03/17 14:12:26;;;;;;;5.38;3.20;;;;;;;;;;5071386;28;20028;-69
2024/03/17 14:14:53;;;;;;;8.13;3.42;;;;;;;;;;5072402;28;20052;-69
2024/03/17 14:17:20;;;;;;;4.13;3.03;;;;;;;;;;5054998;28;20023;-69
2024/03/17 14:19:45;;;;;;;3.97;3.58;;;;;;;;;;5052796;28;20395;-69
2024/03/17 14:22:12;;;;;;;6.47;3.10;;;;;;;;;;5052455;28;20039;-70
2024/03/17 14:24:38;;;;;;;3.38;2.70;;;;;;;;;;5053400;28;20036;-70
2024/03/17 14:27:05;;;;;;;4.65;3.25;;;;;;;;;;5071927;28;20020;-69
2024/03/17 14:29:31;;;;;;;4.90;3.35;;;;;;;;;;5073404;28;20572;-69
2024/03/17 14:31:57;;;;;;;4.70;3.63;;;;;;;;;;5070728;28;20494;-71
2024/03/17 14:34:23;;;;;;;5.60;3.17;;;;;;;;;;5053877;28;20039;-69
2024/03/17 14:36:49;;;;;;;7.00;3.20;;;;;;;;;;5071594;28;20017;-69
2024/03/17 14:39:15;;;;;;;4.70;3.05;;;;;;;;;;5071642;28;20490;-70
2024/03/17 14:41:41;;;;;;;4.57;3.20;;;;;;;;;;5070435;28;20239;-70
2024/03/17 14:44:08;;;;;;;5.05;2.95;;;;;;;;;;5070829;28;20419;-69
2024/03/17 14:46:34;;;;;;;4.40;3.17;;;;;;;;;;5070572;28;20475;-70
2024/03/17 14:49:01;;;;;;;8.43;3.58;;;;;;;;;;5069861;28;20082;-68